createdAt,value
2023-06-04T00:02:17.711Z,13.98
2023-06-04T00:04:44.591Z,13.87
2023-06-04T00:07:11.350Z,14.03
2023-06-04T00:09:38.017Z,14.09
2023-06-04T00:12:05.000Z,14.02
2023-06-04T00:14:31.932Z,13.99
2023-06-04T00:16:58.741Z,14.03
2023-06-04T00:19:25.628Z,13.96
2023-06-04T00:21:52.412Z,13.99
2023-06-04T00:24:19.093Z,13.82
2023-06-04T00:26:46.109Z,13.81
2023-06-04T00:29:12.939Z,13.85
2023-06-04T00:31:39.688Z,13.83
2023-06-04T00:34:07.075Z,13.80
2023-06-04T00:36:33.893Z,13.73
2023-06-04T00:39:00.742Z,13.75
2023-06-04T00:41:27.517Z,13.69
2023-06-04T00:43:57.576Z,13.74
2023-06-04T00:46:26.680Z,13.71
2023-06-04T00:48:54.375Z,13.72
2023-06-04T00:51:22.453Z,13.68
2023-06-04T00:53:53.062Z,13.66
2023-06-04T00:56:20.582Z,13.69
2023-06-04T00:58:47.887Z,13.59
2023-06-04T01:01:34.125Z,13.63
2023-06-04T01:04:03.682Z,13.63
2023-06-04T01:06:41.155Z,13.57
2023-06-04T01:09:08.506Z,13.50
2023-06-04T01:11:40.383Z,13.61
2023-06-04T01:14:11.962Z,13.53
2023-06-04T01:16:51.355Z,13.59
2023-06-04T01:19:49.103Z,13.66
2023-06-04T01:22:29.997Z,13.67
2023-06-04T01:25:00.347Z,13.63
2023-06-04T01:27:27.616Z,13.68
2023-06-04T01:29:58.027Z,13.62
2023-06-04T01:32:26.292Z,13.53
2023-06-04T01:34:53.171Z,13.65
2023-06-04T01:37:19.911Z,13.78
2023-06-04T01:39:46.826Z,13.66
2023-06-04T01:42:13.505Z,13.67
2023-06-04T01:44:40.138Z,13.60
2023-06-04T01:47:06.892Z,13.57
2023-06-04T01:49:33.546Z,13.54
2023-06-04T01:52:00.267Z,13.40
2023-06-04T01:54:27.173Z,13.33
2023-06-04T01:56:53.828Z,13.47
2023-06-04T01:59:20.572Z,13.45
2023-06-04T02:01:47.332Z,13.37
2023-06-04T02:04:14.012Z,13.23
2023-06-04T02:06:40.691Z,13.28
2023-06-04T02:09:07.469Z,13.24
2023-06-04T02:11:34.182Z,13.22
2023-06-04T02:14:00.874Z,13.16
2023-06-04T02:16:27.632Z,13.20
2023-06-04T02:18:54.433Z,13.17
2023-06-04T02:21:21.323Z,13.07
2023-06-04T02:23:48.071Z,13.27
2023-06-04T02:26:16.174Z,13.24
2023-06-04T02:28:43.112Z,13.18
2023-06-04T02:31:09.869Z,13.14
2023-06-04T02:33:36.660Z,13.09
2023-06-04T02:36:03.426Z,13.24
2023-06-04T02:38:30.149Z,13.21
2023-06-04T02:40:56.899Z,13.13
2023-06-04T02:43:23.606Z,13.00
2023-06-04T02:45:50.464Z,12.98
2023-06-04T02:48:17.171Z,13.02
2023-06-04T02:50:43.946Z,13.08
2023-06-04T02:53:10.704Z,13.05
2023-06-04T02:55:37.500Z,13.03
2023-06-04T02:58:04.210Z,13.04
2023-06-04T03:00:30.917Z,12.99
2023-06-04T03:03:02.816Z,12.93
2023-06-04T03:05:33.096Z,12.94
2023-06-04T03:08:02.190Z,12.86
2023-06-04T03:10:28.921Z,12.93
2023-06-04T03:12:56.048Z,12.91
2023-06-04T03:15:22.744Z,12.80
2023-06-04T03:17:49.948Z,12.76
2023-06-04T03:20:16.713Z,12.76
2023-06-04T03:22:43.479Z,12.57
2023-06-04T03:25:10.621Z,12.77
2023-06-04T03:27:37.356Z,12.81
2023-06-04T03:30:04.628Z,12.82
2023-06-04T03:32:31.518Z,12.82
2023-06-04T03:34:58.201Z,12.88
2023-06-04T03:37:24.894Z,12.84
2023-06-04T03:39:51.622Z,12.85
2023-06-04T03:42:18.410Z,13.05
2023-06-04T03:44:45.383Z,12.89
2023-06-04T03:47:12.181Z,12.87
2023-06-04T03:49:38.929Z,12.90
2023-06-04T03:52:05.983Z,13.00
2023-06-04T03:54:32.764Z,13.03
2023-06-04T03:56:59.409Z,12.98
2023-06-04T03:59:26.119Z,13.11
2023-06-04T04:01:52.841Z,13.03
2023-06-04T04:04:19.763Z,12.97
2023-06-04T04:06:46.464Z,12.85
2023-06-04T04:09:13.309Z,12.75
2023-06-04T04:11:39.988Z,12.68
2023-06-04T04:14:06.734Z,12.83
2023-06-04T04:16:33.467Z,12.87
2023-06-04T04:19:00.198Z,12.92
2023-06-04T04:21:27.459Z,13.00
2023-06-04T04:23:54.253Z,13.00
2023-06-04T04:26:21.046Z,12.94
2023-06-04T04:28:47.757Z,12.93
2023-06-04T04:31:15.648Z,12.80
2023-06-04T04:33:42.411Z,12.87
2023-06-04T04:36:15.259Z,12.81
2023-06-04T04:38:42.338Z,12.80
2023-06-04T04:41:09.665Z,12.93
2023-06-04T04:43:41.202Z,12.83
2023-06-04T04:46:08.434Z,12.78
2023-06-04T04:48:35.151Z,12.72
2023-06-04T04:51:01.998Z,12.82
2023-06-04T04:53:29.000Z,12.71
2023-06-04T04:55:55.709Z,12.77
2023-06-04T04:58:22.671Z,12.71
2023-06-04T05:00:49.376Z,12.80
2023-06-04T05:03:16.266Z,12.76
2023-06-04T05:05:43.295Z,12.75
2023-06-04T05:08:10.078Z,12.79
2023-06-04T05:10:39.761Z,12.79
2023-06-04T05:13:07.692Z,12.85
2023-06-04T05:15:34.532Z,12.80
2023-06-04T05:18:02.201Z,13.02
2023-06-04T05:20:29.081Z,13.00
2023-06-04T05:22:56.536Z,13.01
2023-06-04T05:25:23.694Z,12.83
2023-06-04T05:27:51.287Z,12.76
2023-06-04T05:30:18.005Z,12.88
2023-06-04T05:32:44.728Z,13.01
2023-06-04T05:35:11.557Z,13.03
2023-06-04T05:37:39.284Z,13.20
2023-06-04T05:40:07.062Z,13.33
2023-06-04T05:42:34.003Z,13.46
2023-06-04T05:45:00.837Z,13.43
2023-06-04T05:47:30.340Z,13.23
2023-06-04T05:49:57.514Z,13.23
2023-06-04T05:52:24.904Z,13.20
2023-06-04T05:54:51.633Z,13.29
2023-06-04T05:57:18.455Z,13.31
2023-06-04T05:59:45.220Z,13.40
2023-06-04T06:02:12.032Z,13.48
2023-06-04T06:04:39.149Z,13.33
2023-06-04T06:07:06.339Z,13.36
2023-06-04T06:09:33.235Z,13.40
2023-06-04T06:11:59.903Z,13.12
2023-06-04T06:14:26.791Z,13.18
2023-06-04T06:16:55.012Z,13.10
2023-06-04T06:19:21.809Z,13.09
2023-06-04T06:21:48.484Z,13.22
2023-06-04T06:24:15.134Z,13.36
2023-06-04T06:26:41.952Z,13.38
2023-06-04T06:29:08.669Z,13.32
2023-06-04T06:31:35.507Z,13.44
2023-06-04T06:34:02.208Z,13.51
2023-06-04T06:36:29.877Z,13.41
2023-06-04T06:38:59.174Z,13.47
2023-06-04T06:41:27.286Z,13.52
2023-06-04T06:43:54.025Z,13.58
2023-06-04T06:46:20.734Z,13.62
2023-06-04T06:48:48.118Z,13.67
2023-06-04T06:51:14.855Z,13.57
2023-06-04T06:53:41.617Z,13.59
2023-06-04T06:56:08.328Z,13.64
2023-06-04T06:58:35.055Z,13.63
2023-06-04T07:01:02.287Z,13.63
2023-06-04T07:03:29.280Z,13.51
2023-06-04T07:05:56.486Z,13.73
2023-06-04T07:08:23.174Z,13.74
2023-06-04T07:10:49.855Z,13.61
2023-06-04T07:13:17.464Z,13.54
2023-06-04T07:15:44.443Z,13.72
2023-06-04T07:18:11.464Z,13.89
2023-06-04T07:20:38.164Z,14.09
2023-06-04T07:23:04.972Z,14.26
2023-06-04T07:25:31.631Z,14.31
2023-06-04T07:27:59.339Z,13.93
2023-06-04T07:30:27.125Z,14.25
2023-06-04T07:32:54.063Z,14.28
2023-06-04T07:35:20.869Z,14.34
2023-06-04T07:37:49.918Z,14.50
2023-06-04T07:40:17.726Z,14.54
2023-06-04T07:42:48.379Z,14.63
2023-06-04T07:45:16.457Z,14.66
2023-06-04T07:47:44.207Z,14.76
2023-06-04T07:50:11.389Z,14.51
2023-06-04T07:52:38.054Z,14.58
2023-06-04T07:55:06.197Z,14.56
2023-06-04T07:57:33.387Z,14.47
2023-06-04T08:00:00.596Z,14.57
2023-06-04T08:02:27.511Z,14.63
2023-06-04T08:04:54.456Z,14.64
2023-06-04T08:07:21.184Z,14.66
2023-06-04T08:09:47.957Z,14.87
2023-06-04T08:12:24.037Z,14.85
2023-06-04T08:14:51.620Z,15.02
2023-06-04T08:17:18.648Z,15.07
2023-06-04T08:19:45.475Z,14.98
2023-06-04T08:22:12.721Z,15.12
2023-06-04T08:24:40.831Z,15.32
2023-06-04T08:27:09.514Z,15.33
2023-06-04T08:29:37.983Z,15.15
2023-06-04T08:32:05.347Z,14.89
2023-06-04T08:34:32.104Z,15.23
2023-06-04T08:36:58.816Z,14.97
2023-06-04T08:39:26.068Z,15.14
2023-06-04T08:41:55.401Z,15.16
2023-06-04T08:44:22.245Z,15.15
2023-06-04T08:46:54.140Z,15.23
2023-06-04T08:49:23.276Z,15.18
2023-06-04T08:51:50.295Z,15.63
2023-06-04T08:54:17.156Z,15.45
2023-06-04T08:56:45.335Z,15.48
2023-06-04T08:59:12.388Z,15.30
2023-06-04T09:01:39.486Z,15.64
2023-06-04T09:04:11.892Z,15.70
2023-06-04T09:06:41.455Z,15.75
2023-06-04T09:09:11.573Z,15.79
2023-06-04T09:11:52.571Z,15.88
2023-06-04T09:14:19.877Z,15.74
2023-06-04T09:16:47.995Z,15.93
2023-06-04T09:19:15.829Z,16.13
2023-06-04T09:21:52.794Z,16.10
2023-06-04T09:24:25.663Z,16.10
2023-06-04T09:26:53.032Z,16.00
2023-06-04T09:29:21.426Z,16.20
2023-06-04T09:31:58.264Z,16.49
2023-06-04T09:34:29.894Z,16.59
2023-06-04T09:37:02.300Z,16.67
2023-06-04T09:39:30.622Z,16.98
2023-06-04T09:42:04.380Z,16.59
2023-06-04T09:44:31.626Z,16.59
2023-06-04T09:46:59.675Z,16.61
2023-06-04T09:49:27.153Z,16.38
2023-06-04T09:51:53.891Z,16.60
2023-06-04T09:54:20.586Z,16.35
2023-06-04T09:56:47.316Z,16.50
2023-06-04T09:59:14.649Z,16.85
2023-06-04T10:01:45.287Z,16.96
2023-06-04T10:04:16.875Z,16.72
2023-06-04T10:06:44.566Z,16.62
2023-06-04T10:09:17.052Z,16.98
2023-06-04T10:11:59.781Z,16.92
2023-06-04T10:14:33.241Z,16.28
2023-06-04T10:17:01.473Z,16.56
2023-06-04T10:19:30.103Z,16.78
2023-06-04T10:21:57.343Z,16.69
2023-06-04T10:24:26.290Z,17.19
2023-06-04T10:26:58.130Z,17.12
2023-06-04T10:29:31.154Z,17.02
2023-06-04T10:31:59.402Z,17.12
2023-06-04T10:34:27.818Z,16.91
2023-06-04T10:36:54.711Z,16.37
2023-06-04T10:39:33.406Z,17.03
2023-06-04T10:42:04.466Z,16.64
2023-06-04T10:44:33.570Z,16.83
2023-06-04T10:47:00.293Z,17.24
2023-06-04T10:49:37.321Z,17.19
2023-06-04T10:52:14.148Z,16.95
2023-06-04T10:54:43.498Z,16.92
2023-06-04T10:57:18.291Z,16.90
2023-06-04T10:59:58.417Z,17.66
2023-06-04T11:02:25.126Z,17.76
2023-06-04T11:05:07.034Z,18.00
2023-06-04T11:07:46.394Z,17.85
2023-06-04T11:10:14.554Z,17.97
2023-06-04T11:12:46.449Z,18.00
2023-06-04T11:15:18.246Z,17.57
2023-06-04T11:17:52.576Z,17.53
2023-06-04T11:20:21.323Z,17.68
2023-06-04T11:22:59.444Z,17.58
2023-06-04T11:25:28.453Z,17.29
2023-06-04T11:27:56.434Z,17.03
2023-06-04T11:30:24.313Z,16.88
2023-06-04T11:32:53.177Z,16.79
2023-06-04T11:35:25.557Z,16.93
2023-06-04T11:38:00.935Z,17.25
2023-06-04T11:40:30.909Z,17.35
2023-06-04T11:42:58.725Z,17.29
2023-06-04T11:45:31.709Z,17.31
2023-06-04T11:47:59.136Z,17.35
2023-06-04T11:50:30.552Z,17.38
2023-06-04T11:52:58.341Z,17.01
2023-06-04T11:55:33.609Z,17.22
2023-06-04T11:58:00.710Z,16.99
2023-06-04T12:00:29.946Z,17.53
2023-06-04T12:03:00.138Z,17.16
2023-06-04T12:05:31.670Z,17.15
2023-06-04T12:08:11.797Z,17.20
2023-06-04T12:10:40.297Z,17.45
2023-06-04T12:13:11.775Z,17.62
2023-06-04T12:15:45.603Z,17.60
2023-06-04T12:18:29.732Z,17.86
2023-06-04T12:21:00.005Z,17.99
2023-06-04T12:26:31.334Z,17.21
2023-06-04T12:29:02.494Z,17.48
2023-06-04T12:31:33.785Z,17.81
2023-06-04T12:34:02.290Z,17.65
2023-06-04T12:36:29.598Z,17.55
2023-06-04T12:39:01.157Z,17.53
2023-06-04T12:41:28.671Z,17.84
2023-06-04T12:43:56.008Z,17.27
2023-06-04T12:46:24.684Z,17.37
2023-06-04T12:48:52.773Z,17.77
2023-06-04T12:51:20.100Z,17.72
2023-06-04T12:53:46.872Z,17.67
2023-06-04T12:56:17.335Z,17.32
2023-06-04T12:58:44.125Z,17.73
2023-06-04T13:01:14.179Z,17.91
2023-06-04T13:03:41.610Z,18.09
2023-06-04T13:06:09.149Z,18.02
2023-06-04T13:08:39.397Z,17.86
2023-06-04T13:11:09.590Z,17.72
2023-06-04T13:13:36.870Z,17.24
2023-06-04T13:16:04.075Z,17.15
2023-06-04T13:18:30.835Z,17.22
2023-06-04T13:20:57.828Z,17.67
2023-06-04T13:23:34.284Z,18.09
2023-06-04T13:26:09.297Z,17.97
2023-06-04T13:28:36.139Z,17.69
2023-06-04T13:31:03.373Z,17.84
2023-06-04T13:33:30.216Z,17.33
2023-06-04T13:35:56.934Z,17.45
2023-06-04T13:38:23.641Z,17.72
2023-06-04T13:40:50.315Z,17.17
2023-06-04T13:43:20.783Z,17.49
2023-06-04T13:45:52.061Z,17.08
2023-06-04T13:48:19.834Z,17.31
2023-06-04T13:50:46.892Z,17.11
2023-06-04T13:53:14.413Z,17.23
2023-06-04T13:55:41.188Z,17.59
2023-06-04T13:58:08.943Z,17.17
2023-06-04T14:00:37.326Z,17.12
2023-06-04T14:03:06.448Z,16.83
2023-06-04T14:05:33.330Z,16.67
2023-06-04T14:08:01.742Z,17.13
2023-06-04T14:10:28.488Z,17.26
2023-06-04T14:12:55.173Z,17.45
2023-06-04T14:15:21.872Z,17.41
2023-06-04T14:17:51.781Z,17.13
2023-06-04T14:20:18.796Z,17.13
2023-06-04T14:22:45.486Z,17.58
2023-06-04T14:25:12.235Z,17.36
2023-06-04T14:27:38.931Z,17.20
2023-06-04T14:30:06.335Z,17.02
2023-06-04T14:32:35.216Z,16.90
2023-06-04T14:35:05.653Z,16.74
2023-06-04T14:37:32.707Z,16.75
2023-06-04T14:40:01.348Z,16.63
2023-06-04T14:42:31.520Z,16.75
2023-06-04T14:44:59.653Z,16.76
2023-06-04T14:47:28.233Z,16.50
2023-06-04T14:49:55.356Z,16.56
2023-06-04T14:52:23.637Z,17.38
2023-06-04T14:54:53.406Z,17.17
2023-06-04T14:57:24.184Z,17.53
2023-06-04T14:59:51.043Z,17.17
2023-06-04T15:02:21.436Z,17.76
2023-06-04T15:04:50.611Z,17.49
2023-06-04T15:07:19.046Z,17.11
2023-06-04T15:09:48.875Z,17.17
2023-06-04T15:12:18.653Z,17.01
2023-06-04T15:14:51.986Z,17.20
2023-06-04T15:17:21.234Z,17.29
2023-06-04T15:19:48.277Z,17.17
2023-06-04T15:22:15.566Z,16.95
2023-06-04T15:24:44.528Z,16.67
2023-06-04T15:27:12.811Z,16.64
2023-06-04T15:29:41.670Z,16.56
2023-06-04T15:32:08.767Z,16.78
2023-06-04T15:34:35.571Z,16.30
2023-06-04T15:37:02.283Z,16.03
2023-06-04T15:39:34.344Z,16.63
2023-06-04T15:42:02.130Z,16.60
2023-06-04T15:44:29.934Z,16.59
2023-06-04T15:46:58.011Z,16.62
2023-06-04T15:49:27.306Z,16.31
2023-06-04T15:51:54.898Z,16.23
2023-06-04T15:54:36.877Z,16.46
2023-06-04T15:57:14.363Z,16.40
2023-06-04T15:59:45.964Z,16.60
2023-06-04T16:02:17.923Z,16.40
2023-06-04T16:04:44.633Z,16.30
2023-06-04T16:07:11.437Z,16.09
2023-06-04T16:09:38.374Z,16.12
2023-06-04T16:12:06.502Z,15.90
2023-06-04T16:14:33.300Z,15.87
2023-06-04T16:17:00.045Z,16.08
2023-06-04T16:19:26.804Z,15.78
2023-06-04T16:21:54.199Z,16.16
2023-06-04T16:24:21.618Z,16.25
2023-06-04T16:26:48.313Z,16.05
2023-06-04T16:29:15.127Z,16.20
2023-06-04T16:31:41.817Z,16.02
2023-06-04T16:34:09.417Z,15.92
2023-06-04T16:36:37.602Z,15.92
2023-06-04T16:39:05.378Z,16.21
2023-06-04T16:41:33.033Z,16.30
2023-06-04T16:44:00.164Z,16.28
2023-06-04T16:46:27.009Z,16.03
2023-06-04T16:48:53.844Z,15.65
2023-06-04T16:51:20.542Z,15.85
2023-06-04T16:53:47.230Z,15.99
2023-06-04T16:56:15.708Z,16.11
2023-06-04T16:58:42.368Z,15.97
2023-06-04T17:01:11.397Z,16.12
2023-06-04T17:03:38.805Z,15.99
2023-06-04T17:06:06.614Z,15.77
2023-06-04T17:08:33.610Z,15.85
2023-06-04T17:11:00.430Z,15.81
2023-06-04T17:13:27.122Z,15.73
2023-06-04T17:15:53.786Z,15.74
2023-06-04T17:18:21.616Z,15.52
2023-06-04T17:20:48.583Z,15.69
2023-06-04T17:23:23.693Z,15.60
2023-06-04T17:25:51.056Z,15.33
2023-06-04T17:28:18.005Z,15.55
2023-06-04T17:30:44.859Z,15.47
2023-06-04T17:33:11.694Z,15.19
2023-06-04T17:35:41.709Z,15.19
2023-06-04T17:38:08.713Z,15.40
2023-06-04T17:40:35.467Z,15.74
2023-06-04T17:43:02.190Z,15.74
2023-06-04T17:45:28.963Z,15.23
2023-06-04T17:47:55.862Z,15.02
2023-06-04T17:50:22.706Z,15.07
2023-06-04T17:52:50.039Z,14.92
2023-06-04T17:55:17.179Z,14.86
2023-06-04T17:57:43.878Z,14.84
2023-06-04T18:00:11.541Z,14.60
2023-06-04T18:02:38.304Z,14.60
2023-06-04T18:05:05.385Z,14.58
2023-06-04T18:07:32.115Z,14.27
2023-06-04T18:09:58.844Z,14.26
2023-06-04T18:12:25.593Z,14.18
2023-06-04T18:14:52.361Z,14.31
2023-06-04T18:17:19.052Z,14.35
2023-06-04T18:19:46.166Z,14.59
2023-06-04T18:22:12.901Z,14.48
2023-06-04T18:24:39.709Z,14.14
2023-06-04T18:27:06.881Z,14.12
2023-06-04T18:29:33.821Z,14.23
2023-06-04T18:32:01.387Z,14.40
2023-06-04T18:34:29.608Z,14.23
2023-06-04T18:36:57.886Z,14.13
2023-06-04T18:39:26.449Z,13.95
2023-06-04T18:41:57.935Z,13.83
2023-06-04T18:44:25.146Z,14.05
2023-06-04T18:46:51.861Z,14.07
2023-06-04T18:49:22.711Z,13.93
2023-06-04T18:51:53.635Z,13.91
2023-06-04T18:54:20.935Z,13.59
2023-06-04T18:56:47.916Z,13.48
2023-06-04T18:59:16.251Z,13.52
2023-06-04T19:01:44.072Z,13.50
2023-06-04T19:04:13.679Z,13.43
2023-06-04T19:06:44.621Z,13.48
2023-06-04T19:09:11.524Z,13.36
2023-06-04T19:11:40.717Z,13.40
2023-06-04T19:14:07.823Z,13.74
2023-06-04T19:16:34.531Z,13.92
2023-06-04T19:19:01.240Z,13.90
2023-06-04T19:21:28.119Z,13.46
2023-06-04T19:23:54.840Z,13.49
2023-06-04T19:26:22.518Z,13.33
2023-06-04T19:28:49.297Z,13.85
2023-06-04T19:31:16.164Z,13.78
2023-06-04T19:33:43.373Z,13.43
2023-06-04T19:36:10.291Z,13.33
2023-06-04T19:38:38.840Z,13.59
2023-06-04T19:41:09.356Z,13.66
2023-06-04T19:43:36.396Z,13.80
2023-06-04T19:46:03.509Z,13.73
2023-06-04T19:48:30.344Z,14.02
2023-06-04T19:50:57.191Z,13.81
2023-06-04T19:53:23.945Z,13.72
2023-06-04T19:55:53.644Z,13.59
2023-06-04T19:58:21.405Z,13.56
2023-06-04T20:00:49.428Z,13.30
2023-06-04T20:03:16.317Z,13.59
2023-06-04T20:05:43.179Z,13.41
2023-06-04T20:08:09.919Z,13.28
2023-06-04T20:10:36.598Z,13.12
2023-06-04T20:13:03.496Z,13.25
2023-06-04T20:15:34.249Z,13.25
2023-06-04T20:18:02.061Z,13.07
2023-06-04T20:20:28.866Z,13.24
2023-06-04T20:22:57.799Z,13.05
2023-06-04T20:25:24.837Z,13.03
2023-06-04T20:27:51.548Z,13.45
2023-06-04T20:30:18.587Z,13.50
2023-06-04T20:32:45.400Z,13.63
2023-06-04T20:35:12.278Z,13.61
2023-06-04T20:37:40.522Z,13.63
2023-06-04T20:40:07.871Z,13.47
2023-06-04T20:42:34.599Z,13.37
2023-06-04T20:45:01.359Z,13.50
2023-06-04T20:47:28.076Z,13.24
2023-06-04T20:49:54.797Z,13.35
2023-06-04T20:52:21.748Z,13.48
2023-06-04T20:54:48.439Z,13.25
2023-06-04T20:57:15.155Z,13.28
2023-06-04T20:59:42.082Z,13.27
2023-06-04T21:02:08.859Z,13.28
2023-06-04T21:04:35.667Z,13.18
2023-06-04T21:07:02.640Z,13.02
2023-06-04T21:09:29.392Z,13.04
2023-06-04T21:11:56.104Z,13.06
2023-06-04T21:14:22.763Z,13.32
2023-06-04T21:16:49.431Z,13.35
2023-06-04T21:19:16.132Z,13.29
2023-06-04T21:21:42.928Z,13.20
2023-06-04T21:24:09.754Z,13.22
2023-06-04T21:26:36.524Z,13.07
2023-06-04T21:29:03.246Z,13.12
2023-06-04T21:31:29.996Z,13.21
2023-06-04T21:33:56.715Z,13.28
2023-06-04T21:36:23.401Z,13.39
2023-06-04T21:38:50.112Z,13.41
2023-06-04T21:41:16.807Z,13.39
2023-06-04T21:43:44.202Z,13.29
2023-06-04T21:46:11.377Z,13.19
2023-06-04T21:48:38.169Z,13.21
2023-06-04T21:51:04.969Z,13.33
2023-06-04T21:53:31.668Z,13.24
2023-06-04T21:55:58.357Z,13.11
2023-06-04T21:58:25.096Z,13.25
2023-06-04T22:00:52.027Z,13.20
2023-06-04T22:03:19.114Z,13.32
2023-06-04T22:05:45.906Z,13.39
2023-06-04T22:08:14.336Z,13.17
2023-06-04T22:10:41.296Z,13.09
2023-06-04T22:13:07.979Z,13.17
2023-06-04T22:15:36.283Z,13.13
2023-06-04T22:18:03.394Z,13.12
2023-06-04T22:20:30.132Z,13.03
2023-06-04T22:22:56.793Z,13.15
2023-06-04T22:25:23.571Z,13.12
2023-06-04T22:27:50.347Z,13.14
2023-06-04T22:30:17.050Z,13.14
2023-06-04T22:32:43.801Z,13.15
2023-06-04T22:35:10.482Z,13.13
2023-06-04T22:37:37.162Z,13.05
2023-06-04T22:40:04.186Z,12.97
2023-06-04T22:42:30.947Z,13.06
2023-06-04T22:44:57.691Z,12.98
2023-06-04T22:47:24.417Z,13.02
2023-06-04T22:49:51.080Z,12.96
2023-06-04T22:52:17.771Z,13.04
2023-06-04T22:54:44.502Z,13.11
2023-06-04T22:57:11.309Z,13.19
2023-06-04T22:59:38.024Z,13.04
2023-06-04T23:02:05.040Z,12.92
2023-06-04T23:04:31.733Z,12.94
2023-06-04T23:06:58.471Z,12.85
2023-06-04T23:09:25.260Z,12.91
2023-06-04T23:11:52.636Z,12.97
2023-06-04T23:14:19.341Z,12.76
2023-06-04T23:16:46.041Z,12.98
2023-06-04T23:19:12.806Z,12.84
2023-06-04T23:21:39.558Z,12.90
2023-06-04T23:24:06.756Z,12.89
2023-06-04T23:26:33.479Z,12.93
2023-06-04T23:29:00.171Z,13.00
2023-06-04T23:31:27.159Z,13.04
2023-06-04T23:33:53.907Z,13.02
2023-06-04T23:36:20.611Z,13.04
2023-06-04T23:38:48.626Z,13.14
2023-06-04T23:41:15.797Z,13.13
2023-06-04T23:43:42.739Z,13.18
2023-06-04T23:46:09.404Z,13.30
2023-06-04T23:48:36.115Z,13.29
2023-06-04T23:51:02.820Z,13.23
2023-06-04T23:53:29.558Z,13.11
2023-06-04T23:55:56.261Z,13.08
2023-06-04T23:58:23.051Z,13.03
